Аэропорт: Гянджа. Гянджа

ICAO: UBBG

METAR:
2020-06-01 00:30:00
UBBG 010030Z 08004KT 060V130 9999 SCT100 18/12 Q1013 R12/CLRD// NOSIG
METAR:
2020-05-31 23:00:00
TAF UBBG 312300Z 0100/0124 VRB04KT 9999 FEW040 SCT100 TX30/0113Z TN18/0102Z TEMPO 0100/0104 11008KT